Black River (Missouri), Leeper (07062500)

StateMissouriLatestPoor (362 cfs)
RiverBlack RiverRatingObservedEstimated
Updated2022-09-25 22:30 (50 minutes ago)Flood - The river is flooding. Obstacles can be treacherous or deadly. The river should be avoided at this stage for casual trips and definitely for the inexperienced. Trips should be attempted only with protective gear and equipment.Flood(none)3467
Discharge362 cfs (median: 456 cfs)High - The river is high and potentially dangerous, especially for the young and / or inexperienced. Normal stream obstacles are sometimes difficult to navigate. Extended distances can be attempted, but canoe travel may not be advisable.High(none)1178
Height2.38 feetGood - Conditions are ideal for a canoe or kayak. Boats typically will drag on fewer than one-quarter of riffles, if at all, and portages are unnecessary or rare. Normal float lengths can be attempted without a problem.Good(none)720
TrendFalling (falling over 24 hours)Low - River is low but can still be floated. Some riffles are okay but most come with significant dragging and might need a portage. Float lengths should be reduced to accommodate low flow, dragging, and portages.Low(none)423
USGSExternal icon USGS Site (External icon Duck Duck Go Maps)Poor - River is too low to float comfortably. Most or all riffles will drag or must be portaged and some obstacles (such as slick shelf rock) cause undue problems. Avoid the river at this stage for casual paddling trips.Poor(none)219

Trending Data

Plot Image

Trips for Black River (Missouri), Leeper (07062500)

DateStartEndDistanceConditionDischargeHeightFishingDetails

A total of 0 rows are displayed.

Condition Descriptions

Fishing Conditions

Fish Species

Notes

Classic Trip List

The classic River Trips application is still available for use. It is updated with the new system using a data retrofit. It is no longer maintained. The original River Trips application is no longer updated (as of 1 Dec 2016) but can be checked for errors or for the condition of the data before it was converted to the new system.

Gauge Data Table

ObservationHeightDischargeMaximum
Discharge
Minimum
Discharge
Mean
Discharge
P05P10P20P25P50
(Median)
P75P80P90P95
2022-09-25 22:30 2.38 362 3160 (1965) 62 (1966) 582 180 200 231 259 456 613 715 1230 1670
2022-09-25 21:30 2.39 366 3160 (1965) 62 (1966) 582 180 200 231 259 456 613 715 1230 1670
2022-09-25 20:30 2.39 366 3160 (1965) 62 (1966) 582 180 200 231 259 456 613 715 1230 1670
2022-09-25 19:30 2.39 366 3160 (1965) 62 (1966) 582 180 200 231 259 456 613 715 1230 1670
2022-09-25 18:30 2.39 366 3160 (1965) 62 (1966) 582 180 200 231 259 456 613 715 1230 1670
2022-09-25 17:30 2.40 369 3160 (1965) 62 (1966) 582 180 200 231 259 456 613 715 1230 1670
2022-09-25 16:30 2.39 366 3160 (1965) 62 (1966) 582 180 200 231 259 456 613 715 1230 1670
2022-09-25 15:30 2.39 366 3160 (1965) 62 (1966) 582 180 200 231 259 456 613 715 1230 1670
2022-09-25 14:30 2.39 366 3160 (1965) 62 (1966) 582 180 200 231 259 456 613 715 1230 1670
2022-09-25 13:30 2.41 373 3160 (1965) 62 (1966) 582 180 200 231 259 456 613 715 1230 1670
2022-09-25 12:30 2.39 366 3160 (1965) 62 (1966) 582 180 200 231 259 456 613 715 1230 1670
2022-09-25 11:30 2.40 369 3160 (1965) 62 (1966) 582 180 200 231 259 456 613 715 1230 1670
2022-09-25 10:30 2.40 369 3160 (1965) 62 (1966) 582 180 200 231 259 456 613 715 1230 1670
2022-09-25 09:30 2.40 369 3160 (1965) 62 (1966) 582 180 200 231 259 456 613 715 1230 1670
2022-09-25 08:30 2.41 373 3160 (1965) 62 (1966) 582 180 200 231 259 456 613 715 1230 1670
2022-09-25 07:30 2.40 369 3160 (1965) 62 (1966) 582 180 200 231 259 456 613 715 1230 1670
2022-09-25 06:30 2.41 373 3160 (1965) 62 (1966) 582 180 200 231 259 456 613 715 1230 1670
2022-09-25 05:30 2.40 369 3160 (1965) 62 (1966) 582 180 200 231 259 456 613 715 1230 1670
2022-09-25 04:30 2.41 373 3160 (1965) 62 (1966) 582 180 200 231 259 456 613 715 1230 1670
2022-09-25 03:30 2.41 373 3160 (1965) 62 (1966) 582 180 200 231 259 456 613 715 1230 1670
2022-09-25 02:30 2.40 369 3160 (1965) 62 (1966) 582 180 200 231 259 456 613 715 1230 1670
2022-09-25 01:30 2.40 369 3160 (1965) 62 (1966) 582 180 200 231 259 456 613 715 1230 1670
2022-09-25 00:30 2.41 373 3160 (1965) 62 (1966) 582 180 200 231 259 456 613 715 1230 1670
2022-09-24 23:30 2.41 373 2100 (1985) 62 (1966) 525 178 201 232 261 457 604 684 1010 1500
2022-09-24 22:30 2.40 369 2100 (1985) 62 (1966) 525 178 201 232 261 457 604 684 1010 1500
2022-09-24 21:30 2.40 369 2100 (1985) 62 (1966) 525 178 201 232 261 457 604 684 1010 1500
2022-09-24 20:30 2.40 369 2100 (1985) 62 (1966) 525 178 201 232 261 457 604 684 1010 1500
2022-09-24 19:30 2.40 369 2100 (1985) 62 (1966) 525 178 201 232 261 457 604 684 1010 1500
2022-09-24 18:30 2.41 373 2100 (1985) 62 (1966) 525 178 201 232 261 457 604 684 1010 1500
2022-09-24 17:30 2.40 369 2100 (1985) 62 (1966) 525 178 201 232 261 457 604 684 1010 1500
2022-09-24 16:30 2.40 369 2100 (1985) 62 (1966) 525 178 201 232 261 457 604 684 1010 1500
2022-09-24 15:30 2.40 369 2100 (1985) 62 (1966) 525 178 201 232 261 457 604 684 1010 1500
2022-09-24 14:30 2.40 369 2100 (1985) 62 (1966) 525 178 201 232 261 457 604 684 1010 1500
2022-09-24 13:30 2.42 377 2100 (1985) 62 (1966) 525 178 201 232 261 457 604 684 1010 1500
2022-09-24 12:30 2.42 377 2100 (1985) 62 (1966) 525 178 201 232 261 457 604 684 1010 1500
2022-09-24 11:30 2.42 377 2100 (1985) 62 (1966) 525 178 201 232 261 457 604 684 1010 1500
2022-09-24 10:30 2.42 377 2100 (1985) 62 (1966) 525 178 201 232 261 457 604 684 1010 1500
2022-09-24 09:30 2.42 377 2100 (1985) 62 (1966) 525 178 201 232 261 457 604 684 1010 1500
2022-09-24 08:30 2.41 373 2100 (1985) 62 (1966) 525 178 201 232 261 457 604 684 1010 1500
2022-09-24 07:30 2.42 377 2100 (1985) 62 (1966) 525 178 201 232 261 457 604 684 1010 1500
2022-09-24 06:30 2.42 377 2100 (1985) 62 (1966) 525 178 201 232 261 457 604 684 1010 1500
2022-09-24 05:30 2.43 380 2100 (1985) 62 (1966) 525 178 201 232 261 457 604 684 1010 1500
2022-09-24 04:30 2.42 377 2100 (1985) 62 (1966) 525 178 201 232 261 457 604 684 1010 1500
2022-09-24 03:30 2.42 377 2100 (1985) 62 (1966) 525 178 201 232 261 457 604 684 1010 1500
2022-09-24 02:30 2.43 380 2100 (1985) 62 (1966) 525 178 201 232 261 457 604 684 1010 1500
2022-09-24 01:30 2.43 380 2100 (1985) 62 (1966) 525 178 201 232 261 457 604 684 1010 1500
2022-09-24 00:30 2.42 377 2100 (1985) 62 (1966) 525 178 201 232 261 457 604 684 1010 1500
2022-09-23 23:30 2.42 377 2140 (1985) 62 (1966) 529 182 202 229 274 459 618 679 1110 1370
2022-09-23 22:30 2.44 384 2140 (1985) 62 (1966) 529 182 202 229 274 459 618 679 1110 1370
2022-09-23 21:30 2.44 384 2140 (1985) 62 (1966) 529 182 202 229 274 459 618 679 1110 1370
2022-09-23 20:30 2.44 384 2140 (1985) 62 (1966) 529 182 202 229 274 459 618 679 1110 1370
2022-09-23 19:30 2.45 388 2140 (1985) 62 (1966) 529 182 202 229 274 459 618 679 1110 1370
2022-09-23 18:30 2.46 392 2140 (1985) 62 (1966) 529 182 202 229 274 459 618 679 1110 1370
2022-09-23 17:30 2.47 396 2140 (1985) 62 (1966) 529 182 202 229 274 459 618 679 1110 1370
2022-09-23 16:30 2.48 400 2140 (1985) 62 (1966) 529 182 202 229 274 459 618 679 1110 1370
2022-09-23 15:30 2.50 407 2140 (1985) 62 (1966) 529 182 202 229 274 459 618 679 1110 1370
2022-09-23 14:30 2.53 419 2140 (1985) 62 (1966) 529 182 202 229 274 459 618 679 1110 1370
2022-09-23 13:30 2.56 431 2140 (1985) 62 (1966) 529 182 202 229 274 459 618 679 1110 1370
2022-09-23 12:30 2.59 443 2140 (1985) 62 (1966) 529 182 202 229 274 459 618 679 1110 1370
2022-09-23 11:30 2.62 455 2140 (1985) 62 (1966) 529 182 202 229 274 459 618 679 1110 1370
2022-09-23 10:30 2.61 451 2140 (1985) 62 (1966) 529 182 202 229 274 459 618 679 1110 1370
2022-09-23 09:30 2.62 455 2140 (1985) 62 (1966) 529 182 202 229 274 459 618 679 1110 1370
2022-09-23 08:30 2.62 455 2140 (1985) 62 (1966) 529 182 202 229 274 459 618 679 1110 1370
2022-09-23 07:30 2.62 455 2140 (1985) 62 (1966) 529 182 202 229 274 459 618 679 1110 1370
2022-09-23 06:30 2.62 455 2140 (1985) 62 (1966) 529 182 202 229 274 459 618 679 1110 1370
2022-09-23 05:30 2.62 455 2140 (1985) 62 (1966) 529 182 202 229 274 459 618 679 1110 1370
2022-09-23 04:30 2.62 455 2140 (1985) 62 (1966) 529 182 202 229 274 459 618 679 1110 1370
2022-09-23 03:30 2.62 455 2140 (1985) 62 (1966) 529 182 202 229 274 459 618 679 1110 1370
2022-09-23 02:30 2.62 455 2140 (1985) 62 (1966) 529 182 202 229 274 459 618 679 1110 1370
2022-09-23 01:30 2.62 455 2140 (1985) 62 (1966) 529 182 202 229 274 459 618 679 1110 1370
2022-09-23 00:30 2.62 455 2140 (1985) 62 (1966) 529 182 202 229 274 459 618 679 1110 1370
2022-09-22 23:30 2.60 447 2540 (1965) 64 (1966) 559 185 203 229 252 465 565 664 1170 2050
2022-09-22 22:30 2.61 451 2540 (1965) 64 (1966) 559 185 203 229 252 465 565 664 1170 2050
2022-09-22 21:30 2.62 455 2540 (1965) 64 (1966) 559 185 203 229 252 465 565 664 1170 2050
2022-09-22 20:30 2.61 451 2540 (1965) 64 (1966) 559 185 203 229 252 465 565 664 1170 2050
2022-09-22 19:30 2.62 455 2540 (1965) 64 (1966) 559 185 203 229 252 465 565 664 1170 2050
2022-09-22 18:30 2.60 447 2540 (1965) 64 (1966) 559 185 203 229 252 465 565 664 1170 2050
2022-09-22 17:30 2.61 451 2540 (1965) 64 (1966) 559 185 203 229 252 465 565 664 1170 2050
2022-09-22 16:30 2.62 455 2540 (1965) 64 (1966) 559 185 203 229 252 465 565 664 1170 2050
2022-09-22 15:30 2.62 455 2540 (1965) 64 (1966) 559 185 203 229 252 465 565 664 1170 2050
2022-09-22 14:30 2.62 455 2540 (1965) 64 (1966) 559 185 203 229 252 465 565 664 1170 2050
2022-09-22 13:30 2.63 459 2540 (1965) 64 (1966) 559 185 203 229 252 465 565 664 1170 2050
2022-09-22 12:30 2.62 455 2540 (1965) 64 (1966) 559 185 203 229 252 465 565 664 1170 2050
2022-09-22 11:30 2.63 459 2540 (1965) 64 (1966) 559 185 203 229 252 465 565 664 1170 2050
2022-09-22 10:30 2.61 451 2540 (1965) 64 (1966) 559 185 203 229 252 465 565 664 1170 2050
2022-09-22 09:30 2.62 455 2540 (1965) 64 (1966) 559 185 203 229 252 465 565 664 1170 2050
2022-09-22 08:30 2.63 459 2540 (1965) 64 (1966) 559 185 203 229 252 465 565 664 1170 2050
2022-09-22 07:30 2.61 451 2540 (1965) 64 (1966) 559 185 203 229 252 465 565 664 1170 2050
2022-09-22 06:30 2.61 451 2540 (1965) 64 (1966) 559 185 203 229 252 465 565 664 1170 2050
2022-09-22 05:30 2.62 455 2540 (1965) 64 (1966) 559 185 203 229 252 465 565 664 1170 2050
2022-09-22 04:30 2.63 459 2540 (1965) 64 (1966) 559 185 203 229 252 465 565 664 1170 2050
2022-09-22 03:30 2.64 463 2540 (1965) 64 (1966) 559 185 203 229 252 465 565 664 1170 2050
2022-09-22 02:30 2.63 459 2540 (1965) 64 (1966) 559 185 203 229 252 465 565 664 1170 2050
2022-09-22 01:30 2.62 455 2540 (1965) 64 (1966) 559 185 203 229 252 465 565 664 1170 2050
2022-09-22 00:30 2.62 455 2540 (1965) 64 (1966) 559 185 203 229 252 465 565 664 1170 2050
2022-09-21 23:30 2.62 455 2500 (2016) 80 (1966) 528 194 206 231 252 414 562 619 966 1790
2022-09-21 22:30 2.62 455 2500 (2016) 80 (1966) 528 194 206 231 252 414 562 619 966 1790
2022-09-21 21:30 2.61 451 2500 (2016) 80 (1966) 528 194 206 231 252 414 562 619 966 1790
2022-09-21 20:30 2.62 455 2500 (2016) 80 (1966) 528 194 206 231 252 414 562 619 966 1790
2022-09-21 19:30 2.61 451 2500 (2016) 80 (1966) 528 194 206 231 252 414 562 619 966 1790
2022-09-21 18:30 2.61 451 2500 (2016) 80 (1966) 528 194 206 231 252 414 562 619 966 1790
2022-09-21 17:30 2.61 451 2500 (2016) 80 (1966) 528 194 206 231 252 414 562 619 966 1790
2022-09-21 16:30 2.61 451 2500 (2016) 80 (1966) 528 194 206 231 252 414 562 619 966 1790
2022-09-21 15:30 2.61 451 2500 (2016) 80 (1966) 528 194 206 231 252 414 562 619 966 1790
2022-09-21 14:30 2.61 451 2500 (2016) 80 (1966) 528 194 206 231 252 414 562 619 966 1790
2022-09-21 13:30 2.61 451 2500 (2016) 80 (1966) 528 194 206 231 252 414 562 619 966 1790
2022-09-21 12:30 2.61 451 2500 (2016) 80 (1966) 528 194 206 231 252 414 562 619 966 1790
2022-09-21 11:30 2.61 451 2500 (2016) 80 (1966) 528 194 206 231 252 414 562 619 966 1790
2022-09-21 10:30 2.61 451 2500 (2016) 80 (1966) 528 194 206 231 252 414 562 619 966 1790
2022-09-21 09:30 2.61 451 2500 (2016) 80 (1966) 528 194 206 231 252 414 562 619 966 1790
2022-09-21 08:30 2.61 451 2500 (2016) 80 (1966) 528 194 206 231 252 414 562 619 966 1790
2022-09-21 07:30 2.62 455 2500 (2016) 80 (1966) 528 194 206 231 252 414 562 619 966 1790
2022-09-21 06:30 2.63 459 2500 (2016) 80 (1966) 528 194 206 231 252 414 562 619 966 1790
2022-09-21 05:30 2.62 455 2500 (2016) 80 (1966) 528 194 206 231 252 414 562 619 966 1790
2022-09-21 04:30 2.62 455 2500 (2016) 80 (1966) 528 194 206 231 252 414 562 619 966 1790
2022-09-21 03:30 2.61 451 2500 (2016) 80 (1966) 528 194 206 231 252 414 562 619 966 1790
2022-09-21 02:30 2.63 459 2500 (2016) 80 (1966) 528 194 206 231 252 414 562 619 966 1790
2022-09-21 01:30 2.61 451 2500 (2016) 80 (1966) 528 194 206 231 252 414 562 619 966 1790
2022-09-21 00:30 2.60 447 2500 (2016) 80 (1966) 528 194 206 231 252 414 562 619 966 1790
2022-09-20 23:30 2.61 451 2120 (1985) 165 (1955) 528 198 205 230 244 414 630 647 1090 1790
2022-09-20 22:30 2.61 451 2120 (1985) 165 (1955) 528 198 205 230 244 414 630 647 1090 1790
2022-09-20 21:30 2.61 451 2120 (1985) 165 (1955) 528 198 205 230 244 414 630 647 1090 1790
2022-09-20 20:30 2.60 447 2120 (1985) 165 (1955) 528 198 205 230 244 414 630 647 1090 1790
2022-09-20 19:30 2.61 451 2120 (1985) 165 (1955) 528 198 205 230 244 414 630 647 1090 1790
2022-09-20 18:30 2.61 451 2120 (1985) 165 (1955) 528 198 205 230 244 414 630 647 1090 1790
2022-09-20 17:30 2.61 451 2120 (1985) 165 (1955) 528 198 205 230 244 414 630 647 1090 1790
2022-09-20 16:30 2.61 451 2120 (1985) 165 (1955) 528 198 205 230 244 414 630 647 1090 1790
2022-09-20 15:30 2.61 451 2120 (1985) 165 (1955) 528 198 205 230 244 414 630 647 1090 1790
2022-09-20 14:30 2.60 447 2120 (1985) 165 (1955) 528 198 205 230 244 414 630 647 1090 1790
2022-09-20 13:30 2.60 447 2120 (1985) 165 (1955) 528 198 205 230 244 414 630 647 1090 1790
2022-09-20 12:30 2.60 447 2120 (1985) 165 (1955) 528 198 205 230 244 414 630 647 1090 1790
2022-09-20 11:30 2.60 447 2120 (1985) 165 (1955) 528 198 205 230 244 414 630 647 1090 1790
2022-09-20 10:30 2.62 455 2120 (1985) 165 (1955) 528 198 205 230 244 414 630 647 1090 1790
2022-09-20 09:30 2.62 455 2120 (1985) 165 (1955) 528 198 205 230 244 414 630 647 1090 1790
2022-09-20 08:30 2.63 459 2120 (1985) 165 (1955) 528 198 205 230 244 414 630 647 1090 1790
2022-09-20 07:30 2.61 451 2120 (1985) 165 (1955) 528 198 205 230 244 414 630 647 1090 1790
2022-09-20 06:30 2.61 451 2120 (1985) 165 (1955) 528 198 205 230 244 414 630 647 1090 1790
2022-09-20 05:30 2.62 455 2120 (1985) 165 (1955) 528 198 205 230 244 414 630 647 1090 1790
2022-09-20 04:30 2.62 455 2120 (1985) 165 (1955) 528 198 205 230 244 414 630 647 1090 1790
2022-09-20 03:30 2.62 455 2120 (1985) 165 (1955) 528 198 205 230 244 414 630 647 1090 1790
2022-09-20 02:30 2.62 455 2120 (1985) 165 (1955) 528 198 205 230 244 414 630 647 1090 1790
2022-09-20 01:30 2.61 451 2120 (1985) 165 (1955) 528 198 205 230 244 414 630 647 1090 1790
2022-09-20 00:30 2.62 455 2120 (1985) 165 (1955) 528 198 205 230 244 414 630 647 1090 1790
2022-09-19 23:30 2.61 451 2100 (1965) 165 (1955) 531 194 209 239 243 376 603 691 1100 1830
2022-09-19 22:30 2.61 451 2100 (1965) 165 (1955) 531 194 209 239 243 376 603 691 1100 1830
2022-09-19 21:30 2.61 451 2100 (1965) 165 (1955) 531 194 209 239 243 376 603 691 1100 1830
2022-09-19 20:30 2.61 451 2100 (1965) 165 (1955) 531 194 209 239 243 376 603 691 1100 1830
2022-09-19 19:30 2.60 447 2100 (1965) 165 (1955) 531 194 209 239 243 376 603 691 1100 1830
2022-09-19 18:30 2.61 451 2100 (1965) 165 (1955) 531 194 209 239 243 376 603 691 1100 1830
2022-09-19 17:30 2.61 451 2100 (1965) 165 (1955) 531 194 209 239 243 376 603 691 1100 1830
2022-09-19 16:30 2.60 447 2100 (1965) 165 (1955) 531 194 209 239 243 376 603 691 1100 1830
2022-09-19 15:30 2.61 451 2100 (1965) 165 (1955) 531 194 209 239 243 376 603 691 1100 1830
2022-09-19 14:30 2.60 447 2100 (1965) 165 (1955) 531 194 209 239 243 376 603 691 1100 1830
2022-09-19 13:30 2.62 455 2100 (1965) 165 (1955) 531 194 209 239 243 376 603 691 1100 1830
2022-09-19 12:30 2.62 455 2100 (1965) 165 (1955) 531 194 209 239 243 376 603 691 1100 1830
2022-09-19 11:30 2.61 451 2100 (1965) 165 (1955) 531 194 209 239 243 376 603 691 1100 1830
2022-09-19 10:30 2.61 451 2100 (1965) 165 (1955) 531 194 209 239 243 376 603 691 1100 1830
2022-09-19 09:30 2.61 451 2100 (1965) 165 (1955) 531 194 209 239 243 376 603 691 1100 1830
2022-09-19 08:30 2.62 455 2100 (1965) 165 (1955) 531 194 209 239 243 376 603 691 1100 1830
2022-09-19 07:30 2.62 455 2100 (1965) 165 (1955) 531 194 209 239 243 376 603 691 1100 1830
2022-09-19 06:30 2.62 455 2100 (1965) 165 (1955) 531 194 209 239 243 376 603 691 1100 1830
2022-09-19 05:30 2.62 455 2100 (1965) 165 (1955) 531 194 209 239 243 376 603 691 1100 1830
2022-09-19 04:30 2.61 451 2100 (1965) 165 (1955) 531 194 209 239 243 376 603 691 1100 1830
2022-09-19 03:30 2.62 455 2100 (1965) 165 (1955) 531 194 209 239 243 376 603 691 1100 1830
2022-09-19 02:30 2.60 447 2100 (1965) 165 (1955) 531 194 209 239 243 376 603 691 1100 1830
2022-09-19 01:30 2.62 455 2100 (1965) 165 (1955) 531 194 209 239 243 376 603 691 1100 1830
2022-09-19 00:30 2.62 455 2100 (1965) 165 (1955) 531 194 209 239 243 376 603 691 1100 1830
2022-09-18 23:30 2.63 459 2250 (1965) 165 (1955) 540 200 211 241 252 378 579 652 1100 1920
2022-09-18 22:30 2.62 455 2250 (1965) 165 (1955) 540 200 211 241 252 378 579 652 1100 1920
2022-09-18 21:30 2.62 455 2250 (1965) 165 (1955) 540 200 211 241 252 378 579 652 1100 1920
2022-09-18 20:30 2.61 451 2250 (1965) 165 (1955) 540 200 211 241 252 378 579 652 1100 1920
2022-09-18 19:30 2.61 451 2250 (1965) 165 (1955) 540 200 211 241 252 378 579 652 1100 1920
2022-09-18 18:30 2.62 455 2250 (1965) 165 (1955) 540 200 211 241 252 378 579 652 1100 1920
2022-09-18 17:30 2.61 451 2250 (1965) 165 (1955) 540 200 211 241 252 378 579 652 1100 1920
2022-09-18 16:30 2.61 451 2250 (1965) 165 (1955) 540 200 211 241 252 378 579 652 1100 1920
2022-09-18 15:30 2.61 451 2250 (1965) 165 (1955) 540 200 211 241 252 378 579 652 1100 1920
2022-09-18 14:30 2.61 451 2250 (1965) 165 (1955) 540 200 211 241 252 378 579 652 1100 1920
2022-09-18 13:30 2.62 455 2250 (1965) 165 (1955) 540 200 211 241 252 378 579 652 1100 1920
2022-09-18 12:30 2.60 447 2250 (1965) 165 (1955) 540 200 211 241 252 378 579 652 1100 1920
2022-09-18 11:30 2.61 451 2250 (1965) 165 (1955) 540 200 211 241 252 378 579 652 1100 1920
2022-09-18 10:30 2.62 455 2250 (1965) 165 (1955) 540 200 211 241 252 378 579 652 1100 1920
2022-09-18 09:30 2.62 455 2250 (1965) 165 (1955) 540 200 211 241 252 378 579 652 1100 1920
2022-09-18 08:30 2.63 459 2250 (1965) 165 (1955) 540 200 211 241 252 378 579 652 1100 1920
2022-09-18 07:30 2.62 455 2250 (1965) 165 (1955) 540 200 211 241 252 378 579 652 1100 1920
2022-09-18 06:30 2.62 455 2250 (1965) 165 (1955) 540 200 211 241 252 378 579 652 1100 1920
2022-09-18 05:30 2.62 455 2250 (1965) 165 (1955) 540 200 211 241 252 378 579 652 1100 1920
2022-09-18 04:30 2.62 455 2250 (1965) 165 (1955) 540 200 211 241 252 378 579 652 1100 1920
2022-09-18 03:30 2.62 455 2250 (1965) 165 (1955) 540 200 211 241 252 378 579 652 1100 1920
2022-09-18 02:30 2.62 455 2250 (1965) 165 (1955) 540 200 211 241 252 378 579 652 1100 1920
2022-09-18 01:30 2.62 455 2250 (1965) 165 (1955) 540 200 211 241 252 378 579 652 1100 1920
2022-09-18 00:30 2.62 455 2250 (1965) 165 (1955) 540 200 211 241 252 378 579 652 1100 1920

A total of 191 rows are displayed for years 1949 through 2021.